sensor_id;sensor_type;location;lat;lon;timestamp;P1;durP1;ratioP1;P2;durP2;ratioP2
2406;SDS011;37709;53.480;9.688;2023-07-22T00:00:32;16.53;;;10.00;;
2406;SDS011;37709;53.480;9.688;2023-07-22T00:03:00;13.33;;;10.40;;
2406;SDS011;37709;53.480;9.688;2023-07-22T00:05:28;18.87;;;10.57;;
2406;SDS011;37709;53.480;9.688;2023-07-22T00:07:56;13.23;;;9.80;;
2406;SDS011;37709;53.480;9.688;2023-07-22T00:10:23;16.37;;;10.50;;
2406;SDS011;37709;53.480;9.688;2023-07-22T00:12:51;20.40;;;11.20;;
2406;SDS011;37709;53.480;9.688;2023-07-22T00:15:21;20.17;;;11.53;;
2406;SDS011;37709;53.480;9.688;2023-07-22T00:17:52;17.90;;;11.37;;
2406;SDS011;37709;53.480;9.688;2023-07-22T00:23:15;19.13;;;10.83;;
2406;SDS011;37709;53.480;9.688;2023-07-22T00:25:42;18.33;;;11.40;;
2406;SDS011;37709;53.480;9.688;2023-07-22T00:28:11;19.30;;;11.90;;
2406;SDS011;37709;53.480;9.688;2023-07-22T00:30:39;19.67;;;10.80;;
2406;SDS011;37709;53.480;9.688;2023-07-22T00:33:07;16.70;;;11.00;;
2406;SDS011;37709;53.480;9.688;2023-07-22T00:35:36;16.27;;;10.33;;
2406;SDS011;37709;53.480;9.688;2023-07-22T00:38:03;20.30;;;10.40;;
2406;SDS011;37709;53.480;9.688;2023-07-22T00:40:32;21.57;;;10.83;;
2406;SDS011;37709;53.480;9.688;2023-07-22T00:42:59;17.90;;;11.10;;
2406;SDS011;37709;53.480;9.688;2023-07-22T00:45:27;12.77;;;10.20;;
2406;SDS011;37709;53.480;9.688;2023-07-22T00:47:54;14.03;;;9.93;;
2406;SDS011;37709;53.480;9.688;2023-07-22T00:50:23;14.70;;;9.77;;
2406;SDS011;37709;53.480;9.688;2023-07-22T00:52:53;15.53;;;9.90;;
2406;SDS011;37709;53.480;9.688;2023-07-22T00:55:21;21.57;;;10.70;;
2406;SDS011;37709;53.480;9.688;2023-07-22T00:57:50;15.90;;;9.63;;
2406;SDS011;37709;53.480;9.688;2023-07-22T01:00:18;18.93;;;10.87;;
2406;SDS011;37709;53.480;9.688;2023-07-22T01:02:46;16.83;;;9.87;;
2406;SDS011;37709;53.480;9.688;2023-07-22T01:05:14;15.50;;;9.40;;
2406;SDS011;37709;53.480;9.688;2023-07-22T01:07:46;17.00;;;10.27;;
2406;SDS011;37709;53.480;9.688;2023-07-22T01:10:15;21.80;;;10.40;;
2406;SDS011;37709;53.480;9.688;2023-07-22T01:12:45;14.00;;;9.50;;
2406;SDS011;37709;53.480;9.688;2023-07-22T01:15:17;18.63;;;10.40;;
2406;SDS011;37709;53.480;9.688;2023-07-22T01:17:44;21.17;;;9.90;;
2406;SDS011;37709;53.480;9.688;2023-07-22T01:20:16;17.53;;;10.10;;
2406;SDS011;37709;53.480;9.688;2023-07-22T01:22:52;13.10;;;9.00;;
2406;SDS011;37709;53.480;9.688;2023-07-22T01:25:24;13.87;;;9.10;;
2406;SDS011;37709;53.480;9.688;2023-07-22T01:27:56;12.70;;;7.40;;
2406;SDS011;37709;53.480;9.688;2023-07-22T01:30:23;16.33;;;9.83;;
2406;SDS011;37709;53.480;9.688;2023-07-22T01:32:54;18.67;;;9.53;;
2406;SDS011;37709;53.480;9.688;2023-07-22T01:35:26;19.10;;;9.53;;
2406;SDS011;37709;53.480;9.688;2023-07-22T01:37:55;17.03;;;9.83;;
2406;SDS011;37709;53.480;9.688;2023-07-22T01:40:24;14.67;;;8.90;;
2406;SDS011;37709;53.480;9.688;2023-07-22T01:42:52;18.33;;;8.70;;
2406;SDS011;37709;53.480;9.688;2023-07-22T01:45:22;14.23;;;8.90;;
2406;SDS011;37709;53.480;9.688;2023-07-22T01:47:49;20.83;;;10.30;;
2406;SDS011;37709;53.480;9.688;2023-07-22T01:50:19;20.27;;;9.93;;
2406;SDS011;37709;53.480;9.688;2023-07-22T01:52:47;22.60;;;10.77;;
2406;SDS011;37709;53.480;9.688;2023-07-22T01:58:10;21.60;;;11.03;;
2406;SDS011;37709;53.480;9.688;2023-07-22T02:00:39;19.20;;;10.80;;
2406;SDS011;37709;53.480;9.688;2023-07-22T02:03:08;19.20;;;9.43;;
2406;SDS011;37709;53.480;9.688;2023-07-22T02:05:36;17.00;;;9.90;;
2406;SDS011;37709;53.480;9.688;2023-07-22T02:08:06;17.27;;;9.33;;
2406;SDS011;37709;53.480;9.688;2023-07-22T02:10:37;17.50;;;9.50;;
2406;SDS011;37709;53.480;9.688;2023-07-22T02:13:06;20.10;;;8.90;;
2406;SDS011;37709;53.480;9.688;2023-07-22T02:15:35;16.27;;;10.00;;
2406;SDS011;37709;53.480;9.688;2023-07-22T02:18:02;15.70;;;9.53;;
2406;SDS011;37709;53.480;9.688;2023-07-22T02:20:30;15.60;;;9.37;;
2406;SDS011;37709;53.480;9.688;2023-07-22T02:22:59;17.37;;;9.40;;
2406;SDS011;37709;53.480;9.688;2023-07-22T02:25:27;22.67;;;11.03;;
2406;SDS011;37709;53.480;9.688;2023-07-22T02:27:55;16.30;;;9.97;;
2406;SDS011;37709;53.480;9.688;2023-07-22T02:30:22;15.20;;;9.40;;
2406;SDS011;37709;53.480;9.688;2023-07-22T02:32:54;13.80;;;9.47;;
2406;SDS011;37709;53.480;9.688;2023-07-22T02:35:21;17.00;;;10.20;;
2406;SDS011;37709;53.480;9.688;2023-07-22T02:37:49;23.47;;;9.87;;
2406;SDS011;37709;53.480;9.688;2023-07-22T02:40:16;19.57;;;9.27;;
2406;SDS011;37709;53.480;9.688;2023-07-22T02:42:44;17.57;;;8.87;;
2406;SDS011;37709;53.480;9.688;2023-07-22T02:45:12;16.17;;;8.70;;
2406;SDS011;37709;53.480;9.688;2023-07-22T02:47:40;15.30;;;9.10;;
2406;SDS011;37709;53.480;9.688;2023-07-22T02:50:08;16.13;;;8.33;;
2406;SDS011;37709;53.480;9.688;2023-07-22T02:52:36;12.60;;;9.70;;
2406;SDS011;37709;53.480;9.688;2023-07-22T02:55:04;12.83;;;8.63;;
2406;SDS011;37709;53.480;9.688;2023-07-22T02:57:33;16.57;;;9.43;;
2406;SDS011;37709;53.480;9.688;2023-07-22T03:00:01;14.97;;;8.70;;
2406;SDS011;37709;53.480;9.688;2023-07-22T03:02:41;20.30;;;9.70;;
2406;SDS011;37709;53.480;9.688;2023-07-22T03:08:02;17.63;;;8.70;;
2406;SDS011;37709;53.480;9.688;2023-07-22T03:10:30;18.80;;;9.20;;
2406;SDS011;37709;53.480;9.688;2023-07-22T03:12:58;15.63;;;9.30;;
2406;SDS011;37709;53.480;9.688;2023-07-22T03:15:30;15.73;;;8.53;;
2406;SDS011;37709;53.480;9.688;2023-07-22T03:17:58;14.87;;;8.10;;
2406;SDS011;37709;53.480;9.688;2023-07-22T03:23:23;18.27;;;8.13;;
2406;SDS011;37709;53.480;9.688;2023-07-22T03:25:50;16.33;;;8.80;;
2406;SDS011;37709;53.480;9.688;2023-07-22T03:28:18;21.10;;;8.40;;
2406;SDS011;37709;53.480;9.688;2023-07-22T03:30:46;20.60;;;9.07;;
2406;SDS011;37709;53.480;9.688;2023-07-22T03:33:20;17.80;;;9.03;;
2406;SDS011;37709;53.480;9.688;2023-07-22T03:35:48;23.70;;;8.80;;
2406;SDS011;37709;53.480;9.688;2023-07-22T03:38:21;17.40;;;7.63;;
2406;SDS011;37709;53.480;9.688;2023-07-22T03:40:49;17.17;;;8.83;;
2406;SDS011;37709;53.480;9.688;2023-07-22T03:43:21;16.83;;;8.27;;
2406;SDS011;37709;53.480;9.688;2023-07-22T03:45:51;17.80;;;8.90;;
2406;SDS011;37709;53.480;9.688;2023-07-22T03:48:20;16.17;;;8.40;;
2406;SDS011;37709;53.480;9.688;2023-07-22T03:50:48;14.77;;;8.30;;
2406;SDS011;37709;53.480;9.688;2023-07-22T03:53:25;21.53;;;8.97;;
2406;SDS011;37709;53.480;9.688;2023-07-22T03:58:46;16.43;;;8.80;;
2406;SDS011;37709;53.480;9.688;2023-07-22T04:01:22;15.93;;;8.07;;
2406;SDS011;37709;53.480;9.688;2023-07-22T04:03:50;19.70;;;11.10;;
2406;SDS011;37709;53.480;9.688;2023-07-22T04:06:22;14.83;;;8.53;;
2406;SDS011;37709;53.480;9.688;2023-07-22T04:08:52;18.93;;;9.57;;
2406;SDS011;37709;53.480;9.688;2023-07-22T04:14:18;17.83;;;8.00;;
2406;SDS011;37709;53.480;9.688;2023-07-22T04:16:45;15.13;;;7.77;;
2406;SDS011;37709;53.480;9.688;2023-07-22T04:19:15;17.03;;;7.97;;
2406;SDS011;37709;53.480;9.688;2023-07-22T04:21:45;16.67;;;8.73;;
2406;SDS011;37709;53.480;9.688;2023-07-22T04:24:13;13.57;;;7.93;;
2406;SDS011;37709;53.480;9.688;2023-07-22T04:26:42;19.70;;;8.80;;
2406;SDS011;37709;53.480;9.688;2023-07-22T04:29:10;22.33;;;8.70;;
2406;SDS011;37709;53.480;9.688;2023-07-22T04:31:39;14.23;;;7.60;;
2406;SDS011;37709;53.480;9.688;2023-07-22T04:34:07;15.50;;;7.83;;
2406;SDS011;37709;53.480;9.688;2023-07-22T04:36:36;15.43;;;7.80;;
2406;SDS011;37709;53.480;9.688;2023-07-22T04:41:57;12.20;;;6.97;;
2406;SDS011;37709;53.480;9.688;2023-07-22T04:44:25;13.37;;;8.03;;
2406;SDS011;37709;53.480;9.688;2023-07-22T04:46:56;15.70;;;7.10;;
2406;SDS011;37709;53.480;9.688;2023-07-22T04:49:24;17.67;;;7.37;;
2406;SDS011;37709;53.480;9.688;2023-07-22T04:51:52;11.90;;;6.70;;
2406;SDS011;37709;53.480;9.688;2023-07-22T04:54:19;14.53;;;7.63;;
2406;SDS011;37709;53.480;9.688;2023-07-22T04:56:48;19.57;;;8.80;;
2406;SDS011;37709;53.480;9.688;2023-07-22T04:59:15;14.30;;;7.70;;
2406;SDS011;37709;53.480;9.688;2023-07-22T05:01:44;12.47;;;7.30;;
2406;SDS011;37709;53.480;9.688;2023-07-22T05:04:11;19.03;;;8.20;;
2406;SDS011;37709;53.480;9.688;2023-07-22T05:06:40;11.70;;;7.47;;
2406;SDS011;37709;53.480;9.688;2023-07-22T05:09:07;13.30;;;8.27;;
2406;SDS011;37709;53.480;9.688;2023-07-22T05:11:35;11.60;;;7.67;;
2406;SDS011;37709;53.480;9.688;2023-07-22T05:14:03;15.10;;;8.83;;
2406;SDS011;37709;53.480;9.688;2023-07-22T05:16:31;18.77;;;7.77;;
2406;SDS011;37709;53.480;9.688;2023-07-22T05:19:03;9.73;;;7.10;;
2406;SDS011;37709;53.480;9.688;2023-07-22T05:21:32;13.77;;;7.53;;
2406;SDS011;37709;53.480;9.688;2023-07-22T05:23:59;11.30;;;6.73;;
2406;SDS011;37709;53.480;9.688;2023-07-22T05:26:27;9.00;;;5.80;;
2406;SDS011;37709;53.480;9.688;2023-07-22T05:28:55;13.20;;;7.40;;
2406;SDS011;37709;53.480;9.688;2023-07-22T05:31:23;14.20;;;7.00;;
2406;SDS011;37709;53.480;9.688;2023-07-22T05:33:50;16.27;;;6.50;;
2406;SDS011;37709;53.480;9.688;2023-07-22T05:36:20;10.63;;;6.87;;
2406;SDS011;37709;53.480;9.688;2023-07-22T05:38:48;9.50;;;5.70;;
2406;SDS011;37709;53.480;9.688;2023-07-22T05:41:16;11.77;;;7.00;;
2406;SDS011;37709;53.480;9.688;2023-07-22T05:43:43;9.40;;;6.60;;
2406;SDS011;37709;53.480;9.688;2023-07-22T05:46:12;11.10;;;6.20;;
2406;SDS011;37709;53.480;9.688;2023-07-22T05:48:39;11.30;;;6.33;;
2406;SDS011;37709;53.480;9.688;2023-07-22T05:51:08;10.50;;;5.80;;
2406;SDS011;37709;53.480;9.688;2023-07-22T05:53:35;11.20;;;6.50;;
2406;SDS011;37709;53.480;9.688;2023-07-22T05:56:03;11.50;;;5.90;;
2406;SDS011;37709;53.480;9.688;2023-07-22T05:58:31;11.47;;;6.60;;
2406;SDS011;37709;53.480;9.688;2023-07-22T06:00:59;10.57;;;5.70;;
2406;SDS011;37709;53.480;9.688;2023-07-22T06:03:26;11.00;;;6.33;;
2406;SDS011;37709;53.480;9.688;2023-07-22T06:05:59;7.67;;;6.07;;
2406;SDS011;37709;53.480;9.688;2023-07-22T06:08:26;10.50;;;5.87;;
2406;SDS011;37709;53.480;9.688;2023-07-22T06:10:54;8.27;;;5.17;;
2406;SDS011;37709;53.480;9.688;2023-07-22T06:13:22;10.67;;;5.80;;
2406;SDS011;37709;53.480;9.688;2023-07-22T06:15:49;7.50;;;4.97;;
2406;SDS011;37709;53.480;9.688;2023-07-22T06:18:17;10.57;;;4.60;;
2406;SDS011;37709;53.480;9.688;2023-07-22T06:20:45;8.03;;;4.90;;
2406;SDS011;37709;53.480;9.688;2023-07-22T06:23:13;7.93;;;4.50;;
2406;SDS011;37709;53.480;9.688;2023-07-22T06:25:41;8.73;;;5.17;;
2406;SDS011;37709;53.480;9.688;2023-07-22T06:28:09;8.50;;;4.57;;
2406;SDS011;37709;53.480;9.688;2023-07-22T06:30:36;7.57;;;4.17;;
2406;SDS011;37709;53.480;9.688;2023-07-22T06:33:04;6.47;;;4.20;;
2406;SDS011;37709;53.480;9.688;2023-07-22T06:35:32;8.20;;;5.10;;
2406;SDS011;37709;53.480;9.688;2023-07-22T06:38:00;5.47;;;3.63;;
2406;SDS011;37709;53.480;9.688;2023-07-22T06:40:27;7.13;;;4.10;;
2406;SDS011;37709;53.480;9.688;2023-07-22T06:42:55;5.77;;;3.60;;
2406;SDS011;37709;53.480;9.688;2023-07-22T06:45:23;5.83;;;3.77;;
2406;SDS011;37709;53.480;9.688;2023-07-22T06:47:51;6.30;;;3.20;;
2406;SDS011;37709;53.480;9.688;2023-07-22T06:50:19;6.67;;;2.90;;
2406;SDS011;37709;53.480;9.688;2023-07-22T06:52:49;4.43;;;3.13;;
2406;SDS011;37709;53.480;9.688;2023-07-22T06:55:17;4.07;;;2.67;;
2406;SDS011;37709;53.480;9.688;2023-07-22T06:57:47;3.00;;;2.33;;
2406;SDS011;37709;53.480;9.688;2023-07-22T07:00:15;3.60;;;2.80;;
2406;SDS011;37709;53.480;9.688;2023-07-22T07:02:46;3.90;;;2.50;;
2406;SDS011;37709;53.480;9.688;2023-07-22T07:05:14;4.30;;;2.53;;
2406;SDS011;37709;53.480;9.688;2023-07-22T07:07:44;2.37;;;2.07;;
2406;SDS011;37709;53.480;9.688;2023-07-22T07:10:11;4.80;;;2.17;;
2406;SDS011;37709;53.480;9.688;2023-07-22T07:12:39;2.20;;;1.80;;
2406;SDS011;37709;53.480;9.688;2023-07-22T07:15:08;2.50;;;1.63;;
2406;SDS011;37709;53.480;9.688;2023-07-22T07:17:36;3.70;;;2.33;;
2406;SDS011;37709;53.480;9.688;2023-07-22T07:20:04;5.70;;;2.70;;
2406;SDS011;37709;53.480;9.688;2023-07-22T07:22:32;3.90;;;2.70;;
2406;SDS011;37709;53.480;9.688;2023-07-22T07:24:59;3.33;;;1.97;;
2406;SDS011;37709;53.480;9.688;2023-07-22T07:27:28;3.43;;;2.30;;
2406;SDS011;37709;53.480;9.688;2023-07-22T07:29:55;2.83;;;2.10;;
2406;SDS011;37709;53.480;9.688;2023-07-22T07:32:23;3.40;;;2.07;;
2406;SDS011;37709;53.480;9.688;2023-07-22T07:34:54;2.00;;;1.80;;
2406;SDS011;37709;53.480;9.688;2023-07-22T07:37:22;3.53;;;1.70;;
2406;SDS011;37709;53.480;9.688;2023-07-22T07:39:50;1.97;;;1.60;;
2406;SDS011;37709;53.480;9.688;2023-07-22T07:42:17;5.97;;;1.67;;
2406;SDS011;37709;53.480;9.688;2023-07-22T07:44:45;2.30;;;1.20;;
2406;SDS011;37709;53.480;9.688;2023-07-22T07:47:13;2.47;;;1.43;;
2406;SDS011;37709;53.480;9.688;2023-07-22T07:49:41;1.60;;;1.00;;
2406;SDS011;37709;53.480;9.688;2023-07-22T07:52:09;2.83;;;1.27;;
2406;SDS011;37709;53.480;9.688;2023-07-22T07:54:37;1.83;;;1.43;;
2406;SDS011;37709;53.480;9.688;2023-07-22T07:57:05;1.70;;;1.20;;
2406;SDS011;37709;53.480;9.688;2023-07-22T07:59:34;1.90;;;1.30;;
2406;SDS011;37709;53.480;9.688;2023-07-22T08:02:05;1.80;;;1.60;;
2406;SDS011;37709;53.480;9.688;2023-07-22T08:04:36;2.20;;;1.30;;
2406;SDS011;37709;53.480;9.688;2023-07-22T08:07:05;1.97;;;1.10;;
2406;SDS011;37709;53.480;9.688;2023-07-22T08:09:33;4.27;;;1.23;;
2406;SDS011;37709;53.480;9.688;2023-07-22T08:12:01;2.07;;;1.50;;
2406;SDS011;37709;53.480;9.688;2023-07-22T08:14:29;1.67;;;1.10;;
2406;SDS011;37709;53.480;9.688;2023-07-22T08:16:57;2.40;;;1.10;;
2406;SDS011;37709;53.480;9.688;2023-07-22T08:19:25;1.20;;;1.00;;
2406;SDS011;37709;53.480;9.688;2023-07-22T08:21:53;2.00;;;1.13;;
2406;SDS011;37709;53.480;9.688;2023-07-22T08:24:21;1.77;;;1.10;;
2406;SDS011;37709;53.480;9.688;2023-07-22T08:26:49;2.17;;;0.90;;
2406;SDS011;37709;53.480;9.688;2023-07-22T08:29:17;2.30;;;1.27;;
2406;SDS011;37709;53.480;9.688;2023-07-22T08:31:45;1.83;;;1.20;;
2406;SDS011;37709;53.480;9.688;2023-07-22T08:34:13;3.63;;;1.00;;
2406;SDS011;37709;53.480;9.688;2023-07-22T08:36:41;1.43;;;0.90;;
2406;SDS011;37709;53.480;9.688;2023-07-22T08:39:10;5.27;;;1.00;;
2406;SDS011;37709;53.480;9.688;2023-07-22T08:41:37;1.50;;;0.90;;
2406;SDS011;37709;53.480;9.688;2023-07-22T08:44:05;1.73;;;1.07;;
2406;SDS011;37709;53.480;9.688;2023-07-22T08:46:35;2.10;;;1.07;;
2406;SDS011;37709;53.480;9.688;2023-07-22T08:49:05;1.10;;;0.80;;
2406;SDS011;37709;53.480;9.688;2023-07-22T08:51:32;2.00;;;0.93;;
2406;SDS011;37709;53.480;9.688;2023-07-22T08:54:01;2.23;;;1.17;;
2406;SDS011;37709;53.480;9.688;2023-07-22T08:56:41;1.43;;;0.90;;
2406;SDS011;37709;53.480;9.688;2023-07-22T08:59:10;1.10;;;0.90;;
2406;SDS011;37709;53.480;9.688;2023-07-22T09:01:38;1.50;;;1.00;;
2406;SDS011;37709;53.480;9.688;2023-07-22T09:04:07;2.20;;;1.23;;
2406;SDS011;37709;53.480;9.688;2023-07-22T09:06:35;1.30;;;0.83;;
2406;SDS011;37709;53.480;9.688;2023-07-22T09:11:56;3.83;;;1.33;;
2406;SDS011;37709;53.480;9.688;2023-07-22T09:14:27;1.50;;;0.93;;
2406;SDS011;37709;53.480;9.688;2023-07-22T09:17:03;2.17;;;1.10;;
2406;SDS011;37709;53.480;9.688;2023-07-22T09:19:33;1.43;;;0.90;;
2406;SDS011;37709;53.480;9.688;2023-07-22T09:22:01;3.73;;;1.43;;
2406;SDS011;37709;53.480;9.688;2023-07-22T09:24:29;2.00;;;1.30;;
2406;SDS011;37709;53.480;9.688;2023-07-22T09:26:58;2.77;;;1.60;;
2406;SDS011;37709;53.480;9.688;2023-07-22T09:29:39;1.40;;;1.30;;
2406;SDS011;37709;53.480;9.688;2023-07-22T09:32:07;1.83;;;1.10;;
2406;SDS011;37709;53.480;9.688;2023-07-22T09:34:35;3.37;;;1.70;;
2406;SDS011;37709;53.480;9.688;2023-07-22T09:37:03;1.60;;;1.20;;
2406;SDS011;37709;53.480;9.688;2023-07-22T09:39:31;1.67;;;1.10;;
2406;SDS011;37709;53.480;9.688;2023-07-22T09:42:00;2.60;;;1.10;;
2406;SDS011;37709;53.480;9.688;2023-07-22T09:44:32;1.73;;;1.10;;
2406;SDS011;37709;53.480;9.688;2023-07-22T09:47:05;3.27;;;0.83;;
2406;SDS011;37709;53.480;9.688;2023-07-22T09:49:39;2.00;;;0.97;;
2406;SDS011;37709;53.480;9.688;2023-07-22T09:52:09;1.57;;;1.20;;
2406;SDS011;37709;53.480;9.688;2023-07-22T09:54:47;1.43;;;1.03;;
2406;SDS011;37709;53.480;9.688;2023-07-22T09:57:17;1.57;;;1.00;;
2406;SDS011;37709;53.480;9.688;2023-07-22T09:59:45;1.50;;;1.10;;
2406;SDS011;37709;53.480;9.688;2023-07-22T10:02:15;1.53;;;1.00;;
2406;SDS011;37709;53.480;9.688;2023-07-22T10:04:46;1.30;;;1.20;;
2406;SDS011;37709;53.480;9.688;2023-07-22T10:07:14;1.40;;;1.10;;
2406;SDS011;37709;53.480;9.688;2023-07-22T10:09:42;2.93;;;1.00;;
2406;SDS011;37709;53.480;9.688;2023-07-22T10:12:10;2.37;;;1.20;;
2406;SDS011;37709;53.480;9.688;2023-07-22T10:14:43;1.87;;;1.00;;
2406;SDS011;37709;53.480;9.688;2023-07-22T10:17:12;1.77;;;1.10;;
2406;SDS011;37709;53.480;9.688;2023-07-22T10:19:40;2.77;;;1.17;;
2406;SDS011;37709;53.480;9.688;2023-07-22T10:22:08;1.50;;;1.20;;
2406;SDS011;37709;53.480;9.688;2023-07-22T10:24:39;2.67;;;0.83;;
2406;SDS011;37709;53.480;9.688;2023-07-22T10:27:08;2.20;;;1.20;;
2406;SDS011;37709;53.480;9.688;2023-07-22T10:29:36;2.50;;;1.23;;
2406;SDS011;37709;53.480;9.688;2023-07-22T10:32:04;2.07;;;1.87;;
2406;SDS011;37709;53.480;9.688;2023-07-22T10:34:32;2.77;;;1.37;;
2406;SDS011;37709;53.480;9.688;2023-07-22T10:37:00;1.73;;;1.30;;
2406;SDS011;37709;53.480;9.688;2023-07-22T10:39:29;2.50;;;1.90;;
2406;SDS011;37709;53.480;9.688;2023-07-22T10:42:00;1.93;;;1.50;;
2406;SDS011;37709;53.480;9.688;2023-07-22T10:47:34;2.40;;;1.63;;
2406;SDS011;37709;53.480;9.688;2023-07-22T10:50:06;2.50;;;2.30;;
2406;SDS011;37709;53.480;9.688;2023-07-22T10:52:38;3.20;;;2.17;;
2406;SDS011;37709;53.480;9.688;2023-07-22T10:55:15;2.80;;;2.50;;
2406;SDS011;37709;53.480;9.688;2023-07-22T10:57:49;3.67;;;3.00;;
2406;SDS011;37709;53.480;9.688;2023-07-22T11:00:18;2.50;;;2.17;;
2406;SDS011;37709;53.480;9.688;2023-07-22T11:03:08;3.30;;;2.60;;
2406;SDS011;37709;53.480;9.688;2023-07-22T11:05:51;2.60;;;2.40;;
2406;SDS011;37709;53.480;9.688;2023-07-22T11:08:35;2.83;;;2.53;;
2406;SDS011;37709;53.480;9.688;2023-07-22T11:11:03;3.00;;;2.70;;
2406;SDS011;37709;53.480;9.688;2023-07-22T11:13:37;3.30;;;2.90;;
2406;SDS011;37709;53.480;9.688;2023-07-22T11:16:09;5.23;;;2.67;;
2406;SDS011;37709;53.480;9.688;2023-07-22T11:18:38;3.10;;;2.47;;
2406;SDS011;37709;53.480;9.688;2023-07-22T11:21:09;2.80;;;2.57;;
2406;SDS011;37709;53.480;9.688;2023-07-22T11:23:37;4.97;;;2.40;;
2406;SDS011;37709;53.480;9.688;2023-07-22T11:26:05;2.90;;;2.60;;
2406;SDS011;37709;53.480;9.688;2023-07-22T11:28:33;3.53;;;3.17;;
2406;SDS011;37709;53.480;9.688;2023-07-22T11:31:01;3.03;;;2.73;;
2406;SDS011;37709;53.480;9.688;2023-07-22T11:33:39;7.53;;;3.60;;
2406;SDS011;37709;53.480;9.688;2023-07-22T11:36:10;3.33;;;3.03;;
2406;SDS011;37709;53.480;9.688;2023-07-22T11:38:40;3.93;;;3.53;;
2406;SDS011;37709;53.480;9.688;2023-07-22T11:41:08;4.10;;;3.70;;
2406;SDS011;37709;53.480;9.688;2023-07-22T11:43:38;4.03;;;3.63;;
2406;SDS011;37709;53.480;9.688;2023-07-22T11:46:07;3.53;;;3.10;;
2406;SDS011;37709;53.480;9.688;2023-07-22T11:48:34;3.50;;;3.20;;
2406;SDS011;37709;53.480;9.688;2023-07-22T11:51:02;3.90;;;3.50;;
2406;SDS011;37709;53.480;9.688;2023-07-22T11:53:30;3.37;;;3.07;;
2406;SDS011;37709;53.480;9.688;2023-07-22T11:56:00;3.60;;;3.30;;
2406;SDS011;37709;53.480;9.688;2023-07-22T11:58:29;3.77;;;3.37;;
2406;SDS011;37709;53.480;9.688;2023-07-22T12:01:09;5.17;;;3.63;;
2406;SDS011;37709;53.480;9.688;2023-07-22T12:03:39;4.00;;;3.53;;
2406;SDS011;37709;53.480;9.688;2023-07-22T12:06:07;3.90;;;3.37;;
2406;SDS011;37709;53.480;9.688;2023-07-22T12:08:36;3.90;;;3.53;;
2406;SDS011;37709;53.480;9.688;2023-07-22T12:11:04;4.43;;;4.03;;
2406;SDS011;37709;53.480;9.688;2023-07-22T12:13:37;5.30;;;4.47;;
2406;SDS011;37709;53.480;9.688;2023-07-22T12:16:05;5.10;;;3.60;;
2406;SDS011;37709;53.480;9.688;2023-07-22T12:18:46;4.33;;;3.93;;
2406;SDS011;37709;53.480;9.688;2023-07-22T12:21:14;5.03;;;4.40;;
2406;SDS011;37709;53.480;9.688;2023-07-22T12:23:43;4.57;;;4.00;;
2406;SDS011;37709;53.480;9.688;2023-07-22T12:26:11;4.83;;;3.67;;
2406;SDS011;37709;53.480;9.688;2023-07-22T12:28:39;4.43;;;3.53;;
2406;SDS011;37709;53.480;9.688;2023-07-22T12:31:07;4.87;;;4.33;;
2406;SDS011;37709;53.480;9.688;2023-07-22T12:33:36;4.70;;;4.30;;
2406;SDS011;37709;53.480;9.688;2023-07-22T12:36:04;4.60;;;4.20;;
2406;SDS011;37709;53.480;9.688;2023-07-22T12:38:32;6.33;;;4.97;;
2406;SDS011;37709;53.480;9.688;2023-07-22T12:41:00;6.37;;;5.77;;
2406;SDS011;37709;53.480;9.688;2023-07-22T12:43:30;4.43;;;4.03;;
2406;SDS011;37709;53.480;9.688;2023-07-22T12:45:57;5.53;;;4.63;;
2406;SDS011;37709;53.480;9.688;2023-07-22T12:48:25;6.67;;;5.83;;
2406;SDS011;37709;53.480;9.688;2023-07-22T12:50:53;6.20;;;5.57;;
2406;SDS011;37709;53.480;9.688;2023-07-22T12:53:21;5.67;;;4.97;;
2406;SDS011;37709;53.480;9.688;2023-07-22T12:58:42;5.80;;;5.20;;
2406;SDS011;37709;53.480;9.688;2023-07-22T13:04:05;7.27;;;6.40;;
2406;SDS011;37709;53.480;9.688;2023-07-22T13:06:33;8.90;;;5.70;;
2406;SDS011;37709;53.480;9.688;2023-07-22T13:09:00;9.00;;;7.77;;
2406;SDS011;37709;53.480;9.688;2023-07-22T13:11:28;7.40;;;6.70;;
2406;SDS011;37709;53.480;9.688;2023-07-22T13:16:49;6.27;;;5.67;;
2406;SDS011;37709;53.480;9.688;2023-07-22T13:22:10;7.50;;;6.50;;
2406;SDS011;37709;53.480;9.688;2023-07-22T13:24:37;6.33;;;5.57;;
2406;SDS011;37709;53.480;9.688;2023-07-22T13:27:06;5.70;;;5.10;;
2406;SDS011;37709;53.480;9.688;2023-07-22T13:29:34;7.33;;;5.03;;
2406;SDS011;37709;53.480;9.688;2023-07-22T13:32:03;5.30;;;4.73;;
2406;SDS011;37709;53.480;9.688;2023-07-22T13:34:31;6.90;;;5.60;;
2406;SDS011;37709;53.480;9.688;2023-07-22T13:36:59;7.27;;;5.63;;
2406;SDS011;37709;53.480;9.688;2023-07-22T13:39:29;6.43;;;5.80;;
2406;SDS011;37709;53.480;9.688;2023-07-22T13:41:57;10.37;;;5.30;;
2406;SDS011;37709;53.480;9.688;2023-07-22T13:44:25;6.67;;;5.77;;
2406;SDS011;37709;53.480;9.688;2023-07-22T13:46:53;6.30;;;5.70;;
2406;SDS011;37709;53.480;9.688;2023-07-22T13:49:21;5.17;;;4.67;;
2406;SDS011;37709;53.480;9.688;2023-07-22T13:51:49;6.13;;;4.87;;
2406;SDS011;37709;53.480;9.688;2023-07-22T13:54:17;5.67;;;5.07;;
2406;SDS011;37709;53.480;9.688;2023-07-22T13:56:50;5.50;;;4.60;;
2406;SDS011;37709;53.480;9.688;2023-07-22T13:59:18;4.53;;;4.10;;
2406;SDS011;37709;53.480;9.688;2023-07-22T14:01:45;6.13;;;4.97;;
2406;SDS011;37709;53.480;9.688;2023-07-22T14:04:13;5.30;;;4.80;;
2406;SDS011;37709;53.480;9.688;2023-07-22T14:06:42;4.93;;;4.50;;
2406;SDS011;37709;53.480;9.688;2023-07-22T14:09:09;4.33;;;3.90;;
2406;SDS011;37709;53.480;9.688;2023-07-22T14:11:37;5.30;;;4.37;;
2406;SDS011;37709;53.480;9.688;2023-07-22T14:14:13;4.97;;;4.40;;
2406;SDS011;37709;53.480;9.688;2023-07-22T14:16:41;5.00;;;4.43;;
2406;SDS011;37709;53.480;9.688;2023-07-22T14:19:09;5.73;;;4.67;;
2406;SDS011;37709;53.480;9.688;2023-07-22T14:21:37;5.00;;;4.53;;
2406;SDS011;37709;53.480;9.688;2023-07-22T14:24:04;4.73;;;4.33;;
2406;SDS011;37709;53.480;9.688;2023-07-22T14:26:32;8.30;;;4.53;;
2406;SDS011;37709;53.480;9.688;2023-07-22T14:29:01;5.57;;;4.77;;
2406;SDS011;37709;53.480;9.688;2023-07-22T14:31:28;7.00;;;5.40;;
2406;SDS011;37709;53.480;9.688;2023-07-22T14:33:57;6.47;;;4.57;;
2406;SDS011;37709;53.480;9.688;2023-07-22T14:36:24;6.30;;;5.70;;
2406;SDS011;37709;53.480;9.688;2023-07-22T14:38:53;5.10;;;4.27;;
2406;SDS011;37709;53.480;9.688;2023-07-22T14:41:23;4.17;;;3.53;;
2406;SDS011;37709;53.480;9.688;2023-07-22T14:43:54;4.30;;;3.50;;
2406;SDS011;37709;53.480;9.688;2023-07-22T14:46:22;3.10;;;2.53;;
2406;SDS011;37709;53.480;9.688;2023-07-22T14:48:50;3.70;;;3.03;;
2406;SDS011;37709;53.480;9.688;2023-07-22T14:51:18;3.23;;;2.93;;
2406;SDS011;37709;53.480;9.688;2023-07-22T14:53:47;4.90;;;2.80;;
2406;SDS011;37709;53.480;9.688;2023-07-22T14:56:19;3.30;;;3.00;;
2406;SDS011;37709;53.480;9.688;2023-07-22T14:58:47;3.40;;;2.90;;
2406;SDS011;37709;53.480;9.688;2023-07-22T15:01:16;3.27;;;2.97;;
2406;SDS011;37709;53.480;9.688;2023-07-22T15:03:44;3.33;;;2.93;;
2406;SDS011;37709;53.480;9.688;2023-07-22T15:06:12;3.03;;;2.77;;
2406;SDS011;37709;53.480;9.688;2023-07-22T15:08:39;3.47;;;3.17;;
2406;SDS011;37709;53.480;9.688;2023-07-22T15:11:07;3.63;;;3.33;;
2406;SDS011;37709;53.480;9.688;2023-07-22T15:13:35;3.50;;;3.20;;
2406;SDS011;37709;53.480;9.688;2023-07-22T15:16:02;3.17;;;2.77;;
2406;SDS011;37709;53.480;9.688;2023-07-22T15:18:30;3.73;;;3.33;;
2406;SDS011;37709;53.480;9.688;2023-07-22T15:20:58;3.80;;;2.93;;
2406;SDS011;37709;53.480;9.688;2023-07-22T15:23:26;2.77;;;2.53;;
2406;SDS011;37709;53.480;9.688;2023-07-22T15:25:57;3.83;;;3.00;;
2406;SDS011;37709;53.480;9.688;2023-07-22T15:28:26;3.53;;;3.00;;
2406;SDS011;37709;53.480;9.688;2023-07-22T15:30:53;3.50;;;3.00;;
2406;SDS011;37709;53.480;9.688;2023-07-22T15:33:22;3.43;;;3.00;;
2406;SDS011;37709;53.480;9.688;2023-07-22T15:35:52;5.03;;;4.53;;
2406;SDS011;37709;53.480;9.688;2023-07-22T15:38:20;5.27;;;4.77;;
2406;SDS011;37709;53.480;9.688;2023-07-22T15:40:49;6.07;;;4.77;;
2406;SDS011;37709;53.480;9.688;2023-07-22T15:43:20;4.70;;;4.30;;